sensor_id;sensor_type;location;lat;lon;timestamp;P1;durP1;ratioP1;P2;durP2;ratioP2
9522;SDS011;63165;43.016;25.784;2023-07-31T00:00:29;12.73;;;4.40;;
9522;SDS011;63165;43.016;25.784;2023-07-31T00:02:57;9.68;;;3.95;;
9522;SDS011;63165;43.016;25.784;2023-07-31T00:05:24;10.77;;;4.03;;
9522;SDS011;63165;43.016;25.784;2023-07-31T00:07:51;12.68;;;3.88;;
9522;SDS011;63165;43.016;25.784;2023-07-31T00:10:19;10.95;;;4.10;;
9522;SDS011;63165;43.016;25.784;2023-07-31T00:12:46;8.98;;;4.07;;
9522;SDS011;63165;43.016;25.784;2023-07-31T00:15:15;8.95;;;4.07;;
9522;SDS011;63165;43.016;25.784;2023-07-31T00:17:42;6.57;;;3.53;;
9522;SDS011;63165;43.016;25.784;2023-07-31T00:20:10;8.20;;;3.70;;
9522;SDS011;63165;43.016;25.784;2023-07-31T00:22:37;8.93;;;3.65;;
9522;SDS011;63165;43.016;25.784;2023-07-31T00:25:04;12.20;;;4.32;;
9522;SDS011;63165;43.016;25.784;2023-07-31T00:27:32;10.50;;;3.92;;
9522;SDS011;63165;43.016;25.784;2023-07-31T00:29:59;10.30;;;4.07;;
9522;SDS011;63165;43.016;25.784;2023-07-31T00:32:28;10.88;;;4.13;;
9522;SDS011;63165;43.016;25.784;2023-07-31T00:34:55;10.90;;;3.90;;
9522;SDS011;63165;43.016;25.784;2023-07-31T00:37:22;7.65;;;4.03;;
9522;SDS011;63165;43.016;25.784;2023-07-31T00:39:50;12.48;;;3.75;;
9522;SDS011;63165;43.016;25.784;2023-07-31T00:42:17;8.63;;;3.60;;
9522;SDS011;63165;43.016;25.784;2023-07-31T00:44:44;9.13;;;4.15;;
9522;SDS011;63165;43.016;25.784;2023-07-31T00:47:11;10.50;;;3.92;;
9522;SDS011;63165;43.016;25.784;2023-07-31T00:49:40;8.38;;;3.83;;
9522;SDS011;63165;43.016;25.784;2023-07-31T00:52:08;8.18;;;3.97;;
9522;SDS011;63165;43.016;25.784;2023-07-31T00:54:36;6.57;;;3.75;;
9522;SDS011;63165;43.016;25.784;2023-07-31T00:57:04;8.27;;;4.05;;
9522;SDS011;63165;43.016;25.784;2023-07-31T00:59:32;8.98;;;4.00;;
9522;SDS011;63165;43.016;25.784;2023-07-31T01:02:00;9.38;;;4.00;;
9522;SDS011;63165;43.016;25.784;2023-07-31T01:04:27;10.48;;;4.18;;
9522;SDS011;63165;43.016;25.784;2023-07-31T01:07:01;9.27;;;3.63;;
9522;SDS011;63165;43.016;25.784;2023-07-31T01:09:40;13.68;;;4.18;;
9522;SDS011;63165;43.016;25.784;2023-07-31T01:12:12;11.63;;;4.28;;
9522;SDS011;63165;43.016;25.784;2023-07-31T01:14:50;10.02;;;4.28;;
9522;SDS011;63165;43.016;25.784;2023-07-31T01:17:18;12.25;;;4.30;;
9522;SDS011;63165;43.016;25.784;2023-07-31T01:19:45;7.50;;;4.15;;
9522;SDS011;63165;43.016;25.784;2023-07-31T01:22:23;8.75;;;4.03;;
9522;SDS011;63165;43.016;25.784;2023-07-31T01:25:10;12.07;;;4.20;;
9522;SDS011;63165;43.016;25.784;2023-07-31T01:27:47;8.15;;;3.97;;
9522;SDS011;63165;43.016;25.784;2023-07-31T01:30:21;8.43;;;4.13;;
9522;SDS011;63165;43.016;25.784;2023-07-31T01:32:52;9.95;;;4.43;;
9522;SDS011;63165;43.016;25.784;2023-07-31T01:35:21;12.95;;;3.78;;
9522;SDS011;63165;43.016;25.784;2023-07-31T01:37:48;8.75;;;4.10;;
9522;SDS011;63165;43.016;25.784;2023-07-31T01:40:15;7.53;;;4.22;;
9522;SDS011;63165;43.016;25.784;2023-07-31T01:42:42;10.60;;;4.30;;
9522;SDS011;63165;43.016;25.784;2023-07-31T01:45:11;8.02;;;4.07;;
9522;SDS011;63165;43.016;25.784;2023-07-31T01:47:39;11.52;;;4.70;;
9522;SDS011;63165;43.016;25.784;2023-07-31T01:50:06;9.70;;;4.35;;
9522;SDS011;63165;43.016;25.784;2023-07-31T01:52:33;8.20;;;4.28;;
9522;SDS011;63165;43.016;25.784;2023-07-31T01:55:00;7.53;;;4.10;;
9522;SDS011;63165;43.016;25.784;2023-07-31T01:57:27;10.27;;;4.85;;
9522;SDS011;63165;43.016;25.784;2023-07-31T01:59:55;11.40;;;5.03;;
9522;SDS011;63165;43.016;25.784;2023-07-31T02:02:23;10.52;;;4.70;;
9522;SDS011;63165;43.016;25.784;2023-07-31T02:04:50;12.90;;;5.00;;
9522;SDS011;63165;43.016;25.784;2023-07-31T02:07:18;11.50;;;5.20;;
9522;SDS011;63165;43.016;25.784;2023-07-31T02:09:45;8.85;;;4.30;;
9522;SDS011;63165;43.016;25.784;2023-07-31T02:12:13;15.88;;;5.40;;
9522;SDS011;63165;43.016;25.784;2023-07-31T02:14:40;10.75;;;4.80;;
9522;SDS011;63165;43.016;25.784;2023-07-31T02:17:07;8.07;;;4.47;;
9522;SDS011;63165;43.016;25.784;2023-07-31T02:19:36;11.23;;;5.20;;
9522;SDS011;63165;43.016;25.784;2023-07-31T02:22:03;10.88;;;4.80;;
9522;SDS011;63165;43.016;25.784;2023-07-31T02:24:31;9.93;;;4.85;;
9522;SDS011;63165;43.016;25.784;2023-07-31T02:26:58;9.23;;;4.43;;
9522;SDS011;63165;43.016;25.784;2023-07-31T02:29:25;9.57;;;4.60;;
9522;SDS011;63165;43.016;25.784;2023-07-31T02:31:52;13.20;;;4.65;;
9522;SDS011;63165;43.016;25.784;2023-07-31T02:34:19;7.38;;;4.35;;
9522;SDS011;63165;43.016;25.784;2023-07-31T02:36:48;9.77;;;4.70;;
9522;SDS011;63165;43.016;25.784;2023-07-31T02:39:15;13.57;;;4.93;;
9522;SDS011;63165;43.016;25.784;2023-07-31T02:41:42;20.92;;;5.28;;
9522;SDS011;63165;43.016;25.784;2023-07-31T02:44:09;20.83;;;5.53;;
9522;SDS011;63165;43.016;25.784;2023-07-31T02:46:39;24.33;;;5.45;;
9522;SDS011;63165;43.016;25.784;2023-07-31T02:49:06;14.52;;;5.00;;
9522;SDS011;63165;43.016;25.784;2023-07-31T02:51:33;13.38;;;5.18;;
9522;SDS011;63165;43.016;25.784;2023-07-31T02:54:02;14.35;;;5.20;;
9522;SDS011;63165;43.016;25.784;2023-07-31T02:56:29;13.15;;;4.85;;
9522;SDS011;63165;43.016;25.784;2023-07-31T02:58:56;14.10;;;5.20;;
9522;SDS011;63165;43.016;25.784;2023-07-31T03:01:24;12.77;;;5.30;;
9522;SDS011;63165;43.016;25.784;2023-07-31T03:03:51;11.43;;;4.75;;
9522;SDS011;63165;43.016;25.784;2023-07-31T03:06:18;13.35;;;4.60;;
9522;SDS011;63165;43.016;25.784;2023-07-31T03:08:46;8.63;;;4.70;;
9522;SDS011;63165;43.016;25.784;2023-07-31T03:11:14;11.77;;;5.40;;
9522;SDS011;63165;43.016;25.784;2023-07-31T03:13:42;11.60;;;5.40;;
9522;SDS011;63165;43.016;25.784;2023-07-31T03:16:09;20.73;;;6.63;;
9522;SDS011;63165;43.016;25.784;2023-07-31T03:18:36;14.60;;;6.05;;
9522;SDS011;63165;43.016;25.784;2023-07-31T03:21:04;14.00;;;5.43;;
9522;SDS011;63165;43.016;25.784;2023-07-31T03:23:31;12.13;;;6.20;;
9522;SDS011;63165;43.016;25.784;2023-07-31T03:25:58;12.25;;;5.90;;
9522;SDS011;63165;43.016;25.784;2023-07-31T03:28:29;16.90;;;6.82;;
9522;SDS011;63165;43.016;25.784;2023-07-31T03:30:57;15.57;;;6.10;;
9522;SDS011;63165;43.016;25.784;2023-07-31T03:33:24;12.88;;;6.78;;
9522;SDS011;63165;43.016;25.784;2023-07-31T03:35:51;18.60;;;6.30;;
9522;SDS011;63165;43.016;25.784;2023-07-31T03:38:19;15.07;;;6.53;;
9522;SDS011;63165;43.016;25.784;2023-07-31T03:40:46;13.32;;;5.95;;
9522;SDS011;63165;43.016;25.784;2023-07-31T03:43:14;18.38;;;6.60;;
9522;SDS011;63165;43.016;25.784;2023-07-31T03:45:43;19.30;;;7.22;;
9522;SDS011;63165;43.016;25.784;2023-07-31T03:48:11;16.20;;;6.38;;
9522;SDS011;63165;43.016;25.784;2023-07-31T03:50:38;15.20;;;7.05;;
9522;SDS011;63165;43.016;25.784;2023-07-31T03:53:05;16.10;;;6.93;;
9522;SDS011;63165;43.016;25.784;2023-07-31T03:55:32;22.55;;;6.95;;
9522;SDS011;63165;43.016;25.784;2023-07-31T03:57:59;15.55;;;7.07;;
9522;SDS011;63165;43.016;25.784;2023-07-31T04:00:26;18.10;;;6.63;;
9522;SDS011;63165;43.016;25.784;2023-07-31T04:02:55;16.67;;;7.07;;
9522;SDS011;63165;43.016;25.784;2023-07-31T04:05:22;18.77;;;7.88;;
9522;SDS011;63165;43.016;25.784;2023-07-31T04:07:50;16.42;;;7.47;;
9522;SDS011;63165;43.016;25.784;2023-07-31T04:10:17;15.23;;;6.78;;
9522;SDS011;63165;43.016;25.784;2023-07-31T04:12:44;17.38;;;7.80;;
9522;SDS011;63165;43.016;25.784;2023-07-31T04:15:11;13.05;;;7.07;;
9522;SDS011;63165;43.016;25.784;2023-07-31T04:17:39;18.23;;;6.65;;
9522;SDS011;63165;43.016;25.784;2023-07-31T04:20:08;16.60;;;7.88;;
9522;SDS011;63165;43.016;25.784;2023-07-31T04:22:36;14.65;;;7.70;;
9522;SDS011;63165;43.016;25.784;2023-07-31T04:25:03;19.73;;;8.15;;
9522;SDS011;63165;43.016;25.784;2023-07-31T04:27:31;15.43;;;7.13;;
9522;SDS011;63165;43.016;25.784;2023-07-31T04:29:58;18.92;;;8.05;;
9522;SDS011;63165;43.016;25.784;2023-07-31T04:32:25;18.88;;;7.70;;
9522;SDS011;63165;43.016;25.784;2023-07-31T04:34:54;15.30;;;7.68;;
9522;SDS011;63165;43.016;25.784;2023-07-31T04:37:23;13.63;;;7.15;;
9522;SDS011;63165;43.016;25.784;2023-07-31T04:39:50;14.55;;;6.70;;
9522;SDS011;63165;43.016;25.784;2023-07-31T04:42:17;17.02;;;7.82;;
9522;SDS011;63165;43.016;25.784;2023-07-31T04:44:45;16.50;;;7.95;;
9522;SDS011;63165;43.016;25.784;2023-07-31T04:47:12;19.23;;;7.88;;
9522;SDS011;63165;43.016;25.784;2023-07-31T04:49:39;17.40;;;7.20;;
9522;SDS011;63165;43.016;25.784;2023-07-31T04:52:07;15.82;;;7.65;;
9522;SDS011;63165;43.016;25.784;2023-07-31T04:54:36;15.25;;;7.43;;
9522;SDS011;63165;43.016;25.784;2023-07-31T04:57:03;18.17;;;7.55;;
9522;SDS011;63165;43.016;25.784;2023-07-31T04:59:32;18.20;;;7.78;;
9522;SDS011;63165;43.016;25.784;2023-07-31T05:01:59;15.55;;;7.30;;
9522;SDS011;63165;43.016;25.784;2023-07-31T05:04:26;14.68;;;8.18;;
9522;SDS011;63165;43.016;25.784;2023-07-31T05:06:54;19.98;;;8.85;;
9522;SDS011;63165;43.016;25.784;2023-07-31T05:09:22;18.48;;;9.45;;
9522;SDS011;63165;43.016;25.784;2023-07-31T05:11:52;20.38;;;10.00;;
9522;SDS011;63165;43.016;25.784;2023-07-31T05:14:19;21.42;;;9.60;;
9522;SDS011;63165;43.016;25.784;2023-07-31T05:16:46;22.50;;;10.20;;
9522;SDS011;63165;43.016;25.784;2023-07-31T05:19:14;16.65;;;8.18;;
9522;SDS011;63165;43.016;25.784;2023-07-31T05:21:41;25.48;;;9.73;;
9522;SDS011;63165;43.016;25.784;2023-07-31T05:24:08;19.95;;;10.02;;
9522;SDS011;63165;43.016;25.784;2023-07-31T05:26:37;18.42;;;8.98;;
9522;SDS011;63165;43.016;25.784;2023-07-31T05:29:05;18.88;;;9.30;;
9522;SDS011;63165;43.016;25.784;2023-07-31T05:31:33;21.25;;;9.77;;
9522;SDS011;63165;43.016;25.784;2023-07-31T05:34:00;22.67;;;10.23;;
9522;SDS011;63165;43.016;25.784;2023-07-31T05:36:27;21.33;;;10.23;;
9522;SDS011;63165;43.016;25.784;2023-07-31T05:38:54;21.83;;;10.25;;
9522;SDS011;63165;43.016;25.784;2023-07-31T05:41:22;20.48;;;9.60;;
9522;SDS011;63165;43.016;25.784;2023-07-31T05:43:49;22.92;;;10.23;;
9522;SDS011;63165;43.016;25.784;2023-07-31T05:46:19;19.75;;;9.55;;
9522;SDS011;63165;43.016;25.784;2023-07-31T05:48:46;19.35;;;9.30;;
9522;SDS011;63165;43.016;25.784;2023-07-31T05:51:13;21.95;;;11.18;;
9522;SDS011;63165;43.016;25.784;2023-07-31T05:53:40;22.83;;;10.80;;
9522;SDS011;63165;43.016;25.784;2023-07-31T05:56:07;22.05;;;11.18;;
9522;SDS011;63165;43.016;25.784;2023-07-31T05:58:34;22.17;;;10.48;;
9522;SDS011;63165;43.016;25.784;2023-07-31T06:01:02;19.08;;;9.82;;
9522;SDS011;63165;43.016;25.784;2023-07-31T06:03:30;23.73;;;11.18;;
9522;SDS011;63165;43.016;25.784;2023-07-31T06:05:58;21.02;;;10.77;;
9522;SDS011;63165;43.016;25.784;2023-07-31T06:08:25;21.13;;;10.20;;
9522;SDS011;63165;43.016;25.784;2023-07-31T06:10:52;25.60;;;11.68;;
9522;SDS011;63165;43.016;25.784;2023-07-31T06:13:22;21.52;;;11.32;;
9522;SDS011;63165;43.016;25.784;2023-07-31T06:15:49;21.58;;;11.23;;
9522;SDS011;63165;43.016;25.784;2023-07-31T06:18:16;22.95;;;11.35;;
9522;SDS011;63165;43.016;25.784;2023-07-31T06:20:45;27.02;;;11.30;;
9522;SDS011;63165;43.016;25.784;2023-07-31T06:23:18;24.75;;;11.90;;
9522;SDS011;63165;43.016;25.784;2023-07-31T06:25:45;23.55;;;12.43;;
9522;SDS011;63165;43.016;25.784;2023-07-31T06:28:13;28.73;;;12.10;;
9522;SDS011;63165;43.016;25.784;2023-07-31T06:30:40;22.83;;;11.90;;
9522;SDS011;63165;43.016;25.784;2023-07-31T06:33:08;22.15;;;12.10;;
9522;SDS011;63165;43.016;25.784;2023-07-31T06:35:36;21.38;;;11.38;;
9522;SDS011;63165;43.016;25.784;2023-07-31T06:38:05;26.67;;;12.85;;
9522;SDS011;63165;43.016;25.784;2023-07-31T06:40:35;26.60;;;12.63;;
9522;SDS011;63165;43.016;25.784;2023-07-31T06:43:02;28.67;;;13.10;;
9522;SDS011;63165;43.016;25.784;2023-07-31T06:45:33;28.50;;;13.85;;
9522;SDS011;63165;43.016;25.784;2023-07-31T06:48:01;24.83;;;13.15;;
9522;SDS011;63165;43.016;25.784;2023-07-31T06:50:29;25.23;;;13.40;;
9522;SDS011;63165;43.016;25.784;2023-07-31T06:52:56;31.70;;;14.45;;
9522;SDS011;63165;43.016;25.784;2023-07-31T06:55:26;31.52;;;14.52;;
9522;SDS011;63165;43.016;25.784;2023-07-31T06:57:53;26.88;;;13.90;;
9522;SDS011;63165;43.016;25.784;2023-07-31T07:00:22;28.70;;;14.07;;
9522;SDS011;63165;43.016;25.784;2023-07-31T07:02:50;27.48;;;14.25;;
9522;SDS011;63165;43.016;25.784;2023-07-31T07:05:17;26.70;;;13.82;;
9522;SDS011;63165;43.016;25.784;2023-07-31T07:07:44;26.48;;;13.93;;
9522;SDS011;63165;43.016;25.784;2023-07-31T07:10:11;27.88;;;14.25;;
9522;SDS011;63165;43.016;25.784;2023-07-31T07:12:40;30.20;;;14.10;;
9522;SDS011;63165;43.016;25.784;2023-07-31T07:15:08;26.88;;;13.88;;
9522;SDS011;63165;43.016;25.784;2023-07-31T07:17:35;30.27;;;13.48;;
9522;SDS011;63165;43.016;25.784;2023-07-31T07:20:03;28.17;;;13.30;;
9522;SDS011;63165;43.016;25.784;2023-07-31T07:22:31;25.25;;;13.60;;
9522;SDS011;63165;43.016;25.784;2023-07-31T07:24:58;24.55;;;12.85;;
9522;SDS011;63165;43.016;25.784;2023-07-31T07:27:25;22.42;;;11.23;;
9522;SDS011;63165;43.016;25.784;2023-07-31T07:29:54;28.38;;;12.68;;
9522;SDS011;63165;43.016;25.784;2023-07-31T07:32:21;24.17;;;11.57;;
9522;SDS011;63165;43.016;25.784;2023-07-31T07:34:48;25.88;;;11.70;;
9522;SDS011;63165;43.016;25.784;2023-07-31T07:37:16;24.42;;;11.75;;
9522;SDS011;63165;43.016;25.784;2023-07-31T07:39:43;29.17;;;11.50;;
9522;SDS011;63165;43.016;25.784;2023-07-31T07:42:11;29.65;;;11.68;;
9522;SDS011;63165;43.016;25.784;2023-07-31T07:44:38;26.75;;;11.55;;
9522;SDS011;63165;43.016;25.784;2023-07-31T07:47:07;25.83;;;11.93;;
9522;SDS011;63165;43.016;25.784;2023-07-31T07:49:35;28.42;;;12.25;;
9522;SDS011;63165;43.016;25.784;2023-07-31T07:52:02;25.10;;;12.18;;
9522;SDS011;63165;43.016;25.784;2023-07-31T07:54:30;24.08;;;11.35;;
9522;SDS011;63165;43.016;25.784;2023-07-31T07:56:57;27.90;;;12.77;;
9522;SDS011;63165;43.016;25.784;2023-07-31T07:59:25;27.15;;;11.40;;
9522;SDS011;63165;43.016;25.784;2023-07-31T08:01:53;26.35;;;12.20;;
9522;SDS011;63165;43.016;25.784;2023-07-31T08:04:21;26.05;;;11.57;;
9522;SDS011;63165;43.016;25.784;2023-07-31T08:06:49;31.20;;;11.90;;
9522;SDS011;63165;43.016;25.784;2023-07-31T08:09:16;27.23;;;11.88;;
9522;SDS011;63165;43.016;25.784;2023-07-31T08:11:43;29.23;;;12.07;;
9522;SDS011;63165;43.016;25.784;2023-07-31T08:14:10;27.52;;;12.13;;
9522;SDS011;63165;43.016;25.784;2023-07-31T08:16:38;30.30;;;12.13;;
9522;SDS011;63165;43.016;25.784;2023-07-31T08:19:05;26.38;;;11.30;;
9522;SDS011;63165;43.016;25.784;2023-07-31T08:21:33;23.88;;;11.45;;
9522;SDS011;63165;43.016;25.784;2023-07-31T08:24:01;23.13;;;11.40;;
9522;SDS011;63165;43.016;25.784;2023-07-31T08:26:28;24.17;;;10.75;;
9522;SDS011;63165;43.016;25.784;2023-07-31T08:28:55;24.45;;;11.60;;
9522;SDS011;63165;43.016;25.784;2023-07-31T08:31:22;25.98;;;10.90;;
9522;SDS011;63165;43.016;25.784;2023-07-31T08:33:50;24.58;;;10.68;;
9522;SDS011;63165;43.016;25.784;2023-07-31T08:36:17;20.48;;;10.10;;
9522;SDS011;63165;43.016;25.784;2023-07-31T08:38:46;21.73;;;9.48;;
9522;SDS011;63165;43.016;25.784;2023-07-31T08:41:13;31.90;;;9.80;;
9522;SDS011;63165;43.016;25.784;2023-07-31T08:43:42;22.63;;;9.32;;
9522;SDS011;63165;43.016;25.784;2023-07-31T08:46:11;19.95;;;8.63;;
9522;SDS011;63165;43.016;25.784;2023-07-31T08:48:39;18.75;;;8.70;;
9522;SDS011;63165;43.016;25.784;2023-07-31T08:51:09;18.65;;;8.75;;
9522;SDS011;63165;43.016;25.784;2023-07-31T08:53:36;16.95;;;8.30;;
9522;SDS011;63165;43.016;25.784;2023-07-31T08:56:05;19.63;;;7.90;;
9522;SDS011;63165;43.016;25.784;2023-07-31T08:58:33;18.77;;;7.50;;
9522;SDS011;63165;43.016;25.784;2023-07-31T09:01:03;17.02;;;7.50;;
9522;SDS011;63165;43.016;25.784;2023-07-31T09:03:33;16.58;;;7.60;;
9522;SDS011;63165;43.016;25.784;2023-07-31T09:06:01;15.48;;;7.28;;
9522;SDS011;63165;43.016;25.784;2023-07-31T09:08:31;16.45;;;7.78;;
9522;SDS011;63165;43.016;25.784;2023-07-31T09:10:59;17.92;;;8.02;;
9522;SDS011;63165;43.016;25.784;2023-07-31T09:13:29;14.68;;;6.78;;
9522;SDS011;63165;43.016;25.784;2023-07-31T09:15:58;14.52;;;7.03;;
9522;SDS011;63165;43.016;25.784;2023-07-31T09:18:25;16.45;;;7.45;;
9522;SDS011;63165;43.016;25.784;2023-07-31T09:21:02;15.02;;;6.95;;
9522;SDS011;63165;43.016;25.784;2023-07-31T09:23:42;20.83;;;7.40;;
9522;SDS011;63165;43.016;25.784;2023-07-31T09:26:10;14.93;;;6.68;;
9522;SDS011;63165;43.016;25.784;2023-07-31T09:28:39;17.98;;;7.60;;
9522;SDS011;63165;43.016;25.784;2023-07-31T09:31:06;13.07;;;6.60;;
9522;SDS011;63165;43.016;25.784;2023-07-31T09:33:33;11.73;;;6.60;;
9522;SDS011;63165;43.016;25.784;2023-07-31T09:36:20;13.90;;;7.28;;
9522;SDS011;63165;43.016;25.784;2023-07-31T09:38:47;14.73;;;7.07;;
9522;SDS011;63165;43.016;25.784;2023-07-31T09:41:15;13.13;;;6.47;;
9522;SDS011;63165;43.016;25.784;2023-07-31T09:43:43;14.95;;;7.03;;
9522;SDS011;63165;43.016;25.784;2023-07-31T09:46:20;14.07;;;6.75;;
9522;SDS011;63165;43.016;25.784;2023-07-31T09:48:47;15.32;;;6.82;;
9522;SDS011;63165;43.016;25.784;2023-07-31T09:51:14;16.65;;;6.90;;
9522;SDS011;63165;43.016;25.784;2023-07-31T09:53:42;13.40;;;6.70;;
9522;SDS011;63165;43.016;25.784;2023-07-31T09:56:16;17.75;;;6.43;;
9522;SDS011;63165;43.016;25.784;2023-07-31T09:58:49;15.60;;;6.65;;
9522;SDS011;63165;43.016;25.784;2023-07-31T10:01:17;13.20;;;6.85;;
9522;SDS011;63165;43.016;25.784;2023-07-31T10:03:44;13.80;;;6.40;;
9522;SDS011;63165;43.016;25.784;2023-07-31T10:06:12;15.27;;;6.88;;
9522;SDS011;63165;43.016;25.784;2023-07-31T10:08:41;12.55;;;6.07;;
9522;SDS011;63165;43.016;25.784;2023-07-31T10:11:10;11.90;;;6.07;;
9522;SDS011;63165;43.016;25.784;2023-07-31T10:13:39;14.05;;;6.90;;
9522;SDS011;63165;43.016;25.784;2023-07-31T10:16:09;14.93;;;6.70;;
9522;SDS011;63165;43.016;25.784;2023-07-31T10:18:38;12.98;;;6.22;;
9522;SDS011;63165;43.016;25.784;2023-07-31T10:21:07;16.15;;;7.00;;
9522;SDS011;63165;43.016;25.784;2023-07-31T10:23:34;12.85;;;6.13;;
9522;SDS011;63165;43.016;25.784;2023-07-31T10:26:04;14.95;;;5.85;;
9522;SDS011;63165;43.016;25.784;2023-07-31T10:28:34;31.00;;;7.15;;
9522;SDS011;63165;43.016;25.784;2023-07-31T10:31:03;11.45;;;5.90;;
9522;SDS011;63165;43.016;25.784;2023-07-31T10:33:33;12.50;;;5.70;;
9522;SDS011;63165;43.016;25.784;2023-07-31T10:38:48;12.65;;;5.63;;
9522;SDS011;63165;43.016;25.784;2023-07-31T10:41:16;15.13;;;6.00;;
9522;SDS011;63165;43.016;25.784;2023-07-31T10:43:45;14.60;;;5.85;;
9522;SDS011;63165;43.016;25.784;2023-07-31T10:46:13;12.00;;;5.80;;
9522;SDS011;63165;43.016;25.784;2023-07-31T10:48:42;18.52;;;6.13;;
9522;SDS011;63165;43.016;25.784;2023-07-31T10:51:10;11.18;;;5.50;;
9522;SDS011;63165;43.016;25.784;2023-07-31T10:53:38;15.73;;;5.20;;
9522;SDS011;63165;43.016;25.784;2023-07-31T10:56:07;15.88;;;5.50;;
9522;SDS011;63165;43.016;25.784;2023-07-31T10:58:38;10.77;;;5.40;;
9522;SDS011;63165;43.016;25.784;2023-07-31T11:01:05;13.32;;;5.30;;
9522;SDS011;63165;43.016;25.784;2023-07-31T11:03:43;11.50;;;5.40;;
9522;SDS011;63165;43.016;25.784;2023-07-31T11:06:12;9.82;;;5.38;;
9522;SDS011;63165;43.016;25.784;2023-07-31T11:08:43;10.32;;;4.93;;
9522;SDS011;63165;43.016;25.784;2023-07-31T11:11:11;12.55;;;5.78;;
9522;SDS011;63165;43.016;25.784;2023-07-31T11:13:40;11.35;;;6.68;;
9522;SDS011;63165;43.016;25.784;2023-07-31T11:16:09;11.77;;;6.13;;
9522;SDS011;63165;43.016;25.784;2023-07-31T11:18:38;12.85;;;6.05;;
9522;SDS011;63165;43.016;25.784;2023-07-31T11:21:08;11.40;;;5.90;;
9522;SDS011;63165;43.016;25.784;2023-07-31T11:23:37;10.25;;;5.05;;
9522;SDS011;63165;43.016;25.784;2023-07-31T11:26:05;13.40;;;5.93;;
9522;SDS011;63165;43.016;25.784;2023-07-31T11:28:33;19.27;;;6.35;;
9522;SDS011;63165;43.016;25.784;2023-07-31T11:31:01;13.95;;;6.00;;
9522;SDS011;63165;43.016;25.784;2023-07-31T11:33:29;11.75;;;5.72;;
9522;SDS011;63165;43.016;25.784;2023-07-31T11:35:56;11.82;;;5.50;;
9522;SDS011;63165;43.016;25.784;2023-07-31T11:38:26;10.75;;;4.97;;
9522;SDS011;63165;43.016;25.784;2023-07-31T11:40:55;11.32;;;5.05;;
9522;SDS011;63165;43.016;25.784;2023-07-31T11:43:24;12.75;;;5.18;;
9522;SDS011;63165;43.016;25.784;2023-07-31T11:45:52;15.05;;;5.43;;
9522;SDS011;63165;43.016;25.784;2023-07-31T11:48:21;10.45;;;4.97;;
9522;SDS011;63165;43.016;25.784;2023-07-31T11:50:50;10.35;;;5.07;;
9522;SDS011;63165;43.016;25.784;2023-07-31T11:53:19;11.00;;;5.75;;
9522;SDS011;63165;43.016;25.784;2023-07-31T11:55:50;9.35;;;5.03;;
9522;SDS011;63165;43.016;25.784;2023-07-31T11:58:18;8.43;;;4.72;;
9522;SDS011;63165;43.016;25.784;2023-07-31T12:00:46;8.93;;;4.72;;
9522;SDS011;63165;43.016;25.784;2023-07-31T12:03:15;8.50;;;5.13;;
9522;SDS011;63165;43.016;25.784;2023-07-31T12:05:42;14.07;;;5.50;;
9522;SDS011;63165;43.016;25.784;2023-07-31T12:08:09;12.00;;;5.45;;
9522;SDS011;63165;43.016;25.784;2023-07-31T12:10:38;9.43;;;5.28;;
9522;SDS011;63165;43.016;25.784;2023-07-31T12:13:08;11.18;;;5.00;;
9522;SDS011;63165;43.016;25.784;2023-07-31T12:15:39;11.35;;;4.90;;
9522;SDS011;63165;43.016;25.784;2023-07-31T12:18:09;10.88;;;5.35;;
9522;SDS011;63165;43.016;25.784;2023-07-31T12:20:41;10.43;;;5.03;;
9522;SDS011;63165;43.016;25.784;2023-07-31T12:23:15;10.02;;;5.22;;
9522;SDS011;63165;43.016;25.784;2023-07-31T12:25:54;11.73;;;5.60;;
9522;SDS011;63165;43.016;25.784;2023-07-31T12:28:28;8.77;;;4.85;;
9522;SDS011;63165;43.016;25.784;2023-07-31T12:30:56;10.60;;;4.78;;
9522;SDS011;63165;43.016;25.784;2023-07-31T12:33:30;10.55;;;5.13;;
9522;SDS011;63165;43.016;25.784;2023-07-31T12:36:00;10.43;;;5.53;;
9522;SDS011;63165;43.016;25.784;2023-07-31T12:38:28;9.40;;;5.45;;
9522;SDS011;63165;43.016;25.784;2023-07-31T12:40:56;9.60;;;5.05;;
9522;SDS011;63165;43.016;25.784;2023-07-31T12:43:23;10.73;;;4.90;;
9522;SDS011;63165;43.016;25.784;2023-07-31T12:45:53;12.75;;;5.78;;
9522;SDS011;63165;43.016;25.784;2023-07-31T12:48:21;10.00;;;5.63;;
9522;SDS011;63165;43.016;25.784;2023-07-31T12:50:49;15.43;;;5.40;;
9522;SDS011;63165;43.016;25.784;2023-07-31T12:53:16;11.15;;;5.60;;
9522;SDS011;63165;43.016;25.784;2023-07-31T12:55:44;11.93;;;5.10;;
9522;SDS011;63165;43.016;25.784;2023-07-31T12:58:11;10.88;;;5.40;;
9522;SDS011;63165;43.016;25.784;2023-07-31T13:00:39;9.38;;;5.13;;
9522;SDS011;63165;43.016;25.784;2023-07-31T13:03:10;12.68;;;6.38;;
9522;SDS011;63165;43.016;25.784;2023-07-31T13:05:38;8.80;;;4.97;;
9522;SDS011;63165;43.016;25.784;2023-07-31T13:08:05;11.10;;;4.97;;
9522;SDS011;63165;43.016;25.784;2023-07-31T13:10:32;13.13;;;5.95;;
9522;SDS011;63165;43.016;25.784;2023-07-31T13:13:00;11.35;;;5.57;;
9522;SDS011;63165;43.016;25.784;2023-07-31T13:15:27;10.85;;;5.28;;
9522;SDS011;63165;43.016;25.784;2023-07-31T13:17:54;9.82;;;5.38;;
9522;SDS011;63165;43.016;25.784;2023-07-31T13:20:23;13.88;;;5.57;;
9522;SDS011;63165;43.016;25.784;2023-07-31T13:22:52;11.48;;;5.38;;
9522;SDS011;63165;43.016;25.784;2023-07-31T13:25:19;11.77;;;5.80;;
9522;SDS011;63165;43.016;25.784;2023-07-31T13:27:46;11.93;;;5.80;;
9522;SDS011;63165;43.016;25.784;2023-07-31T13:30:14;14.70;;;5.80;;
9522;SDS011;63165;43.016;25.784;2023-07-31T13:32:41;10.57;;;5.57;;
9522;SDS011;63165;43.016;25.784;2023-07-31T13:35:08;11.70;;;5.55;;
9522;SDS011;63165;43.016;25.784;2023-07-31T13:37:38;10.50;;;5.45;;
9522;SDS011;63165;43.016;25.784;2023-07-31T13:40:05;9.60;;;5.25;;
9522;SDS011;63165;43.016;25.784;2023-07-31T13:42:33;17.25;;;5.80;;
9522;SDS011;63165;43.016;25.784;2023-07-31T13:45:00;10.73;;;5.30;;
9522;SDS011;63165;43.016;25.784;2023-07-31T13:47:28;9.93;;;5.28;;
9522;SDS011;63165;43.016;25.784;2023-07-31T13:49:56;14.43;;;7.00;;
9522;SDS011;63165;43.016;25.784;2023-07-31T13:52:23;20.73;;;7.78;;
9522;SDS011;63165;43.016;25.784;2023-07-31T13:54:51;25.80;;;10.35;;
9522;SDS011;63165;43.016;25.784;2023-07-31T13:57:19;31.45;;;12.70;;
9522;SDS011;63165;43.016;25.784;2023-07-31T13:59:46;12.93;;;6.80;;
9522;SDS011;63165;43.016;25.784;2023-07-31T14:02:13;14.27;;;6.70;;
9522;SDS011;63165;43.016;25.784;2023-07-31T14:04:40;10.05;;;5.85;;
9522;SDS011;63165;43.016;25.784;2023-07-31T14:07:07;17.98;;;9.10;;
9522;SDS011;63165;43.016;25.784;2023-07-31T14:09:34;16.20;;;8.80;;
9522;SDS011;63165;43.016;25.784;2023-07-31T14:12:03;12.85;;;6.32;;
9522;SDS011;63165;43.016;25.784;2023-07-31T14:14:31;13.98;;;7.47;;
9522;SDS011;63165;43.016;25.784;2023-07-31T14:16:59;10.55;;;5.93;;
9522;SDS011;63165;43.016;25.784;2023-07-31T14:19:26;10.45;;;6.30;;
9522;SDS011;63165;43.016;25.784;2023-07-31T14:21:53;14.45;;;6.15;;
9522;SDS011;63165;43.016;25.784;2023-07-31T14:24:20;10.50;;;5.85;;
9522;SDS011;63165;43.016;25.784;2023-07-31T14:26:47;13.23;;;6.28;;
9522;SDS011;63165;43.016;25.784;2023-07-31T14:29:16;18.48;;;7.85;;
9522;SDS011;63165;43.016;25.784;2023-07-31T14:31:43;13.95;;;6.72;;
9522;SDS011;63165;43.016;25.784;2023-07-31T14:34:11;12.30;;;6.30;;
9522;SDS011;63165;43.016;25.784;2023-07-31T14:36:38;11.13;;;5.82;;
9522;SDS011;63165;43.016;25.784;2023-07-31T14:39:05;13.13;;;6.70;;
9522;SDS011;63165;43.016;25.784;2023-07-31T14:41:32;11.80;;;6.35;;